Terminal Aerodrome Forecast
Issued by NWS Grand Junction, CO

Home | Current Version | Previous Version | Text Only | Print | Product List | Glossary On
Versions: 1 2 3 4 5 6 7 8 9 10 11 12 13 14 15
000
FTUS45 KGJT 240839 AAB
TAFGJT
TAF AMD
KGJT 240839Z 2409/2506 11012KT P6SM BKN120
     FM242000 28008KT P6SM SCT110
     FM250200 09007KT P6SM FEW200=

USA.gov is the U.S. government's official web portal to all federal, state and local government web resources and services.